createdAt,value
2017-06-08T00:01:52.030Z,16.20
2017-06-08T00:04:20.346Z,12.60
2017-06-08T00:06:48.895Z,13.27
2017-06-08T00:09:17.375Z,14.70
2017-06-08T00:11:46.596Z,18.30
2017-06-08T00:14:14.919Z,16.00
2017-06-08T00:16:43.331Z,15.00
2017-06-08T00:19:12.433Z,16.67
2017-06-08T00:21:40.910Z,15.30
2017-06-08T00:24:10.008Z,12.50
2017-06-08T00:26:38.274Z,9.43
2017-06-08T00:29:07.472Z,16.40
2017-06-08T00:31:36.538Z,12.07
2017-06-08T00:34:05.051Z,11.07
2017-06-08T00:36:33.422Z,12.60
2017-06-08T00:39:02.502Z,11.17
2017-06-08T00:41:30.899Z,10.80
2017-06-08T00:43:59.365Z,12.83
2017-06-08T00:46:27.759Z,14.03
2017-06-08T00:48:56.831Z,10.73
2017-06-08T00:51:25.511Z,14.57
2017-06-08T00:53:53.915Z,13.07
2017-06-08T00:56:23.010Z,12.80
2017-06-08T00:58:52.111Z,12.57
2017-06-08T01:01:21.186Z,12.60
2017-06-08T01:03:49.783Z,13.50
2017-06-08T01:06:18.169Z,12.40
2017-06-08T01:08:46.538Z,13.27
2017-06-08T01:11:14.887Z,9.33
2017-06-08T01:13:43.191Z,9.67
2017-06-08T01:16:12.279Z,10.93
2017-06-08T01:18:40.666Z,11.53
2017-06-08T01:21:15.381Z,10.93
2017-06-08T01:23:44.447Z,9.80
2017-06-08T01:26:12.763Z,9.53
2017-06-08T01:28:41.822Z,10.20
2017-06-08T01:31:10.440Z,21.63
2017-06-08T01:33:38.857Z,9.83
2017-06-08T01:36:07.194Z,10.17
2017-06-08T01:38:36.288Z,9.50
2017-06-08T01:41:04.676Z,12.27
2017-06-08T01:43:33.985Z,11.47
2017-06-08T01:46:03.066Z,9.23
2017-06-08T01:48:32.114Z,9.97
2017-06-08T01:51:00.535Z,10.80
2017-06-08T01:53:28.914Z,11.40
2017-06-08T01:55:58.215Z,10.53
2017-06-08T01:58:26.523Z,10.57
2017-06-08T02:00:54.834Z,10.40
2017-06-08T02:03:23.162Z,11.90
2017-06-08T02:05:51.482Z,11.73
2017-06-08T02:08:19.902Z,8.57
2017-06-08T02:10:48.286Z,9.50
2017-06-08T02:13:17.483Z,9.50
2017-06-08T02:15:46.681Z,8.90
2017-06-08T02:18:15.984Z,7.57
2017-06-08T02:20:44.467Z,11.87
2017-06-08T02:23:12.839Z,9.80
2017-06-08T02:25:41.174Z,7.90
2017-06-08T02:28:09.496Z,9.97
2017-06-08T02:30:37.834Z,8.90
2017-06-08T02:33:06.238Z,10.13
2017-06-08T02:35:35.147Z,8.67
2017-06-08T02:38:04.198Z,10.47
2017-06-08T02:40:32.616Z,10.77
2017-06-08T02:43:00.987Z,9.73
2017-06-08T02:45:30.030Z,11.47
2017-06-08T02:47:58.560Z,11.20
2017-06-08T02:50:27.660Z,10.70
2017-06-08T02:52:55.967Z,8.40
2017-06-08T02:55:24.403Z,8.73
2017-06-08T02:57:53.727Z,11.43
2017-06-08T03:00:22.058Z,11.50
2017-06-08T03:02:51.359Z,15.10
2017-06-08T03:05:19.765Z,12.70
2017-06-08T03:07:48.865Z,10.70
2017-06-08T03:10:18.056Z,9.10
2017-06-08T03:12:46.537Z,13.50
2017-06-08T03:15:15.587Z,11.70
2017-06-08T03:17:44.007Z,10.17
2017-06-08T03:20:13.095Z,10.30
2017-06-08T03:22:41.488Z,10.97
2017-06-08T03:25:10.589Z,10.03
2017-06-08T03:27:39.804Z,8.60
2017-06-08T03:30:08.150Z,8.87
2017-06-08T03:32:37.577Z,8.30
2017-06-08T03:35:05.932Z,9.70
2017-06-08T03:37:34.402Z,7.50
2017-06-08T03:40:03.498Z,8.40
2017-06-08T03:42:32.604Z,7.20
2017-06-08T03:45:01.895Z,9.10
2017-06-08T03:47:30.270Z,10.07
2017-06-08T03:49:58.564Z,6.63
2017-06-08T03:52:27.032Z,7.97
2017-06-08T03:54:56.111Z,10.70
2017-06-08T03:57:25.203Z,8.87
2017-06-08T03:59:53.504Z,11.70
2017-06-08T04:02:22.800Z,12.73
2017-06-08T04:04:51.899Z,13.07
2017-06-08T04:07:20.299Z,10.40
2017-06-08T04:09:48.636Z,8.17
2017-06-08T04:12:17.703Z,10.60
2017-06-08T04:14:46.061Z,11.97
2017-06-08T04:17:14.394Z,9.50
2017-06-08T04:19:44.258Z,10.47
2017-06-08T04:22:12.551Z,9.70
2017-06-08T04:24:41.059Z,9.20
2017-06-08T04:27:09.542Z,8.63
2017-06-08T04:29:37.826Z,9.20
2017-06-08T04:32:06.309Z,10.90
2017-06-08T04:34:35.370Z,11.90
2017-06-08T04:37:03.682Z,9.50
2017-06-08T04:39:32.747Z,9.30
2017-06-08T04:42:01.078Z,12.47
2017-06-08T04:44:29.385Z,12.53
2017-06-08T04:46:58.112Z,13.23
2017-06-08T04:49:27.200Z,11.30
2017-06-08T04:51:56.265Z,12.40
2017-06-08T04:54:24.671Z,9.90
2017-06-08T04:56:53.736Z,8.77
2017-06-08T04:59:22.065Z,7.60
2017-06-08T05:01:50.375Z,11.40
2017-06-08T05:04:18.999Z,9.93
2017-06-08T05:06:47.286Z,8.63
2017-06-08T05:09:16.372Z,8.73
2017-06-08T05:11:44.755Z,10.17
2017-06-08T05:14:13.858Z,8.57
2017-06-08T05:16:42.228Z,11.03
2017-06-08T05:19:10.535Z,12.00
2017-06-08T05:21:38.988Z,9.50
2017-06-08T05:24:08.076Z,10.13
2017-06-08T05:26:37.169Z,10.83
2017-06-08T05:29:06.364Z,11.97
2017-06-08T05:31:34.703Z,12.77
2017-06-08T05:34:03.345Z,10.90
2017-06-08T05:36:31.667Z,11.50
2017-06-08T05:38:59.992Z,10.37
2017-06-08T05:41:29.184Z,11.63
2017-06-08T05:43:58.277Z,10.17
2017-06-08T05:46:27.675Z,8.93
2017-06-08T05:48:56.060Z,11.13
2017-06-08T05:51:25.153Z,11.20
2017-06-08T05:53:53.490Z,8.53
2017-06-08T05:56:21.798Z,12.77
2017-06-08T05:58:50.175Z,11.70
2017-06-08T06:01:19.246Z,9.70
2017-06-08T06:03:47.674Z,11.17
2017-06-08T06:06:16.008Z,9.47
2017-06-08T06:08:44.277Z,10.57
2017-06-08T06:11:12.583Z,8.70
2017-06-08T06:13:41.707Z,10.03
2017-06-08T06:16:10.673Z,7.77
2017-06-08T06:18:39.767Z,11.00
2017-06-08T06:21:08.242Z,11.60
2017-06-08T06:23:36.578Z,11.00
2017-06-08T06:26:04.879Z,9.10
2017-06-08T06:28:33.205Z,12.50
2017-06-08T06:31:01.559Z,8.37
2017-06-08T06:33:29.931Z,9.00
2017-06-08T06:35:58.211Z,6.97
2017-06-08T06:38:27.498Z,8.87
2017-06-08T06:40:55.819Z,10.97
2017-06-08T06:43:24.251Z,10.60
2017-06-08T06:45:53.339Z,8.80
2017-06-08T06:48:21.651Z,10.57
2017-06-08T06:50:50.018Z,6.97
2017-06-08T06:53:19.214Z,9.63
2017-06-08T06:55:47.555Z,11.07
2017-06-08T06:58:15.858Z,9.40
2017-06-08T07:00:45.151Z,9.93
2017-06-08T07:03:13.543Z,9.93
2017-06-08T07:05:42.702Z,8.70
2017-06-08T07:08:11.111Z,9.60
2017-06-08T07:10:39.562Z,11.50
2017-06-08T07:13:08.118Z,9.07
2017-06-08T07:15:36.423Z,11.10
2017-06-08T07:18:05.528Z,10.67
2017-06-08T07:20:33.850Z,11.73
2017-06-08T07:23:02.159Z,11.53
2017-06-08T07:25:30.576Z,11.37
2017-06-08T07:27:58.894Z,11.77
2017-06-08T07:30:27.427Z,8.50
2017-06-08T07:32:55.760Z,11.87
2017-06-08T07:35:24.071Z,9.73
2017-06-08T07:37:52.405Z,11.17
2017-06-08T07:40:20.705Z,10.60
2017-06-08T07:42:49.159Z,10.93
2017-06-08T07:45:17.599Z,10.73
2017-06-08T07:47:47.067Z,10.87
2017-06-08T07:50:15.591Z,13.70
2017-06-08T07:52:44.665Z,13.73
2017-06-08T07:55:13.274Z,11.83
2017-06-08T07:57:41.587Z,12.30
2017-06-08T08:00:10.171Z,14.33
2017-06-08T08:02:50.379Z,12.27
2017-06-08T08:05:19.670Z,18.90
2017-06-08T08:07:48.771Z,15.30
2017-06-08T08:10:17.259Z,18.03
2017-06-08T08:12:45.631Z,14.37
2017-06-08T08:15:14.836Z,13.53
2017-06-08T08:17:43.507Z,12.30
2017-06-08T08:20:12.102Z,13.30
2017-06-08T08:22:40.855Z,12.20
2017-06-08T08:25:09.266Z,11.63
2017-06-08T08:27:37.675Z,12.20
2017-06-08T08:30:06.944Z,13.93
2017-06-08T08:32:35.320Z,14.67
2017-06-08T08:35:04.393Z,14.70
2017-06-08T08:37:33.595Z,14.87
2017-06-08T08:40:02.704Z,12.23
2017-06-08T08:42:31.061Z,17.70
2017-06-08T08:44:59.463Z,15.60
2017-06-08T08:47:28.063Z,13.73
2017-06-08T08:49:56.392Z,12.53
2017-06-08T08:52:25.523Z,13.37
2017-06-08T08:54:53.900Z,12.00
2017-06-08T08:57:22.996Z,11.73
2017-06-08T08:59:52.123Z,15.13
2017-06-08T09:02:20.486Z,18.27
2017-06-08T09:04:49.050Z,15.43
2017-06-08T09:07:18.144Z,15.33
2017-06-08T09:09:46.593Z,13.27
2017-06-08T09:12:16.640Z,16.00
2017-06-08T09:14:45.119Z,16.10
2017-06-08T09:17:13.510Z,16.67
2017-06-08T09:19:41.854Z,21.83
2017-06-08T09:22:10.969Z,14.93
2017-06-08T09:24:40.046Z,16.20
2017-06-08T09:27:08.544Z,16.87
2017-06-08T09:29:37.616Z,15.57
2017-06-08T09:32:06.020Z,15.60
2017-06-08T09:34:34.392Z,13.33
2017-06-08T09:37:03.489Z,14.50
2017-06-08T09:39:32.597Z,14.17
2017-06-08T09:42:01.724Z,13.93
2017-06-08T09:44:30.337Z,14.87
2017-06-08T09:46:58.635Z,10.93
2017-06-08T09:49:27.805Z,17.73
2017-06-08T09:51:56.920Z,15.57
2017-06-08T09:54:25.406Z,16.40
2017-06-08T09:56:54.612Z,18.70
2017-06-08T09:59:23.699Z,14.83
2017-06-08T10:01:53.006Z,18.00
2017-06-08T10:04:22.070Z,13.37
2017-06-08T10:06:50.376Z,16.17
2017-06-08T10:09:19.463Z,14.40
2017-06-08T10:11:48.559Z,15.83
2017-06-08T10:14:17.152Z,14.30
2017-06-08T10:16:45.471Z,12.40
2017-06-08T10:19:13.794Z,11.90
2017-06-08T10:21:42.901Z,11.97
2017-06-08T10:24:11.295Z,15.83
2017-06-08T10:26:39.647Z,11.30
2017-06-08T10:29:08.030Z,14.83
2017-06-08T10:31:37.323Z,14.53
2017-06-08T10:34:05.814Z,17.77
2017-06-08T10:36:34.193Z,14.73
2017-06-08T10:39:02.659Z,15.03
2017-06-08T10:41:30.977Z,15.27
2017-06-08T10:43:59.519Z,11.17
2017-06-08T10:46:27.864Z,14.73
2017-06-08T10:48:56.179Z,11.53
2017-06-08T10:51:24.556Z,10.40
2017-06-08T10:53:52.994Z,12.43
2017-06-08T10:56:21.355Z,10.00
2017-06-08T10:58:49.770Z,13.10
2017-06-08T11:01:18.076Z,10.60
2017-06-08T11:03:46.657Z,14.33
2017-06-08T11:06:15.718Z,10.87
2017-06-08T11:08:44.162Z,12.03
2017-06-08T11:11:12.471Z,10.70
2017-06-08T11:13:40.885Z,12.37
2017-06-08T11:16:09.215Z,13.73
2017-06-08T11:18:37.543Z,11.70
2017-06-08T11:21:05.866Z,12.50
2017-06-08T11:23:34.359Z,12.40
2017-06-08T11:26:02.877Z,11.37
2017-06-08T11:28:31.458Z,11.70
2017-06-08T11:30:59.800Z,11.90
2017-06-08T11:33:28.110Z,8.60
2017-06-08T11:35:57.191Z,11.00
2017-06-08T11:38:26.608Z,12.50
2017-06-08T11:40:54.987Z,12.17
2017-06-08T11:43:24.846Z,10.60
2017-06-08T11:45:53.185Z,11.20
2017-06-08T11:48:21.514Z,12.70
2017-06-08T11:50:50.847Z,14.70
2017-06-08T11:53:19.286Z,12.50
2017-06-08T11:55:47.619Z,14.47
2017-06-08T11:58:15.949Z,15.03
2017-06-08T12:00:44.262Z,11.40
2017-06-08T12:03:12.595Z,13.63
2017-06-08T12:05:41.795Z,12.43
2017-06-08T12:08:10.311Z,13.40
2017-06-08T12:10:39.076Z,12.87
2017-06-08T12:13:07.595Z,12.70
2017-06-08T12:15:35.957Z,11.00
2017-06-08T12:18:04.289Z,11.53
2017-06-08T12:20:32.632Z,12.27
2017-06-08T12:23:00.954Z,12.67
2017-06-08T12:25:29.477Z,13.80
2017-06-08T12:27:57.859Z,14.80
2017-06-08T12:30:26.926Z,12.93
2017-06-08T12:32:55.439Z,14.20
2017-06-08T12:35:24.027Z,13.40
2017-06-08T12:37:52.356Z,14.07
2017-06-08T12:40:20.652Z,11.20
2017-06-08T12:42:49.150Z,11.57
2017-06-08T12:45:18.240Z,11.17
2017-06-08T12:47:46.631Z,11.80
2017-06-08T12:50:16.011Z,14.43
2017-06-08T12:52:45.196Z,14.00
2017-06-08T12:55:13.591Z,14.77
2017-06-08T12:57:42.651Z,15.33
2017-06-08T13:00:10.976Z,14.57
2017-06-08T13:02:39.308Z,19.60
2017-06-08T13:05:07.714Z,21.97
2017-06-08T13:07:37.740Z,16.13
2017-06-08T13:10:06.807Z,19.30
2017-06-08T13:12:35.932Z,14.87
2017-06-08T13:15:05.008Z,14.97
2017-06-08T13:17:33.400Z,12.73
2017-06-08T13:20:02.710Z,15.77
2017-06-08T13:22:31.019Z,21.07
2017-06-08T13:24:59.319Z,18.00
2017-06-08T13:27:27.792Z,16.10
2017-06-08T13:29:56.213Z,21.10
2017-06-08T13:32:25.316Z,25.23
2017-06-08T13:34:54.374Z,26.63
2017-06-08T13:37:23.630Z,21.10
2017-06-08T13:39:51.966Z,28.53
2017-06-08T13:42:21.174Z,20.07
2017-06-08T13:44:49.647Z,16.73
2017-06-08T13:47:18.179Z,21.20
2017-06-08T13:49:46.507Z,17.30
2017-06-08T13:52:15.914Z,17.43
2017-06-08T13:54:45.159Z,22.27
2017-06-08T13:57:13.494Z,23.20
2017-06-08T13:59:41.808Z,23.07
2017-06-08T14:02:10.244Z,25.10
2017-06-08T14:04:39.321Z,23.93
2017-06-08T14:07:07.818Z,22.07
2017-06-08T14:09:36.187Z,16.10
2017-06-08T14:12:05.297Z,21.60
2017-06-08T14:14:34.463Z,17.57
2017-06-08T14:17:02.962Z,22.47
2017-06-08T14:19:32.066Z,26.73
2017-06-08T14:22:01.126Z,17.90
2017-06-08T14:24:29.584Z,18.63
2017-06-08T14:26:58.121Z,18.90
2017-06-08T14:29:27.217Z,25.13
2017-06-08T14:31:55.736Z,28.20
2017-06-08T14:34:24.076Z,30.73
2017-06-08T14:36:52.462Z,29.63
2017-06-08T14:39:21.234Z,20.77
2017-06-08T14:41:49.613Z,24.77
2017-06-08T14:44:19.260Z,20.70
2017-06-08T14:46:47.823Z,18.70
2017-06-08T14:49:16.815Z,22.13
2017-06-08T14:51:45.689Z,22.17
2017-06-08T14:54:14.072Z,29.07
2017-06-08T14:56:42.387Z,30.67
2017-06-08T14:59:10.818Z,22.80
2017-06-08T15:01:39.911Z,24.60
2017-06-08T15:04:08.289Z,24.03
2017-06-08T15:06:37.400Z,23.93
2017-06-08T15:09:05.969Z,30.53
2017-06-08T15:11:35.079Z,21.57
2017-06-08T15:14:03.384Z,25.03
2017-06-08T15:16:31.715Z,20.70
2017-06-08T15:19:00.198Z,22.03
2017-06-08T15:21:29.700Z,20.93
2017-06-08T15:23:58.770Z,22.60
2017-06-08T15:26:27.076Z,20.53
2017-06-08T15:28:55.455Z,20.03
2017-06-08T15:31:23.761Z,18.17
2017-06-08T15:33:52.299Z,18.27
2017-06-08T15:36:20.631Z,17.90
2017-06-08T15:38:48.963Z,16.37
2017-06-08T15:41:18.054Z,15.43
2017-06-08T15:43:47.151Z,18.03
2017-06-08T15:46:15.884Z,17.17
2017-06-08T15:48:44.196Z,13.20
2017-06-08T15:51:12.491Z,14.70
2017-06-08T15:53:41.170Z,18.57
2017-06-08T15:56:10.251Z,16.23
2017-06-08T15:58:38.547Z,14.43
2017-06-08T16:01:07.754Z,18.37
2017-06-08T16:03:36.064Z,19.53
2017-06-08T16:06:04.405Z,20.70
2017-06-08T16:08:33.491Z,20.50
2017-06-08T16:11:02.177Z,17.47
2017-06-08T16:13:31.239Z,15.77
2017-06-08T16:15:59.550Z,15.90
2017-06-08T16:18:28.024Z,21.70
2017-06-08T16:20:57.090Z,22.67
2017-06-08T16:23:25.397Z,21.60
2017-06-08T16:25:54.590Z,19.03
2017-06-08T16:28:22.983Z,16.80
2017-06-08T16:30:52.062Z,24.47
2017-06-08T16:33:21.141Z,26.60
2017-06-08T16:35:49.758Z,17.30
2017-06-08T16:38:18.803Z,14.17
2017-06-08T16:40:47.451Z,16.90
2017-06-08T16:43:15.767Z,16.83
2017-06-08T16:45:44.180Z,32.73
2017-06-08T16:48:12.492Z,31.17
2017-06-08T16:50:40.832Z,38.07
2017-06-08T16:53:09.148Z,29.40
2017-06-08T16:55:37.478Z,27.83
2017-06-08T16:58:06.277Z,18.73
2017-06-08T17:00:34.751Z,22.53
2017-06-08T17:03:03.091Z,25.00
2017-06-08T17:05:31.440Z,21.07
2017-06-08T17:07:59.791Z,13.30
2017-06-08T17:10:28.380Z,13.40
2017-06-08T17:12:56.715Z,17.07
2017-06-08T17:15:25.034Z,17.27
2017-06-08T17:17:53.402Z,16.90
2017-06-08T17:20:21.736Z,13.00
2017-06-08T17:22:50.156Z,12.30
2017-06-08T17:25:18.447Z,11.90
2017-06-08T17:27:47.023Z,16.73
2017-06-08T17:30:15.575Z,13.60
2017-06-08T17:32:43.912Z,12.67
2017-06-08T17:35:12.352Z,11.90
2017-06-08T17:37:40.639Z,16.20
2017-06-08T17:40:09.087Z,12.13
2017-06-08T17:42:37.394Z,11.57
2017-06-08T17:45:05.896Z,11.77
2017-06-08T17:47:34.555Z,12.73
2017-06-08T17:50:03.613Z,10.37
2017-06-08T17:52:31.930Z,12.10
2017-06-08T17:55:00.265Z,11.60
2017-06-08T17:57:28.682Z,14.20
2017-06-08T17:59:57.084Z,11.87
2017-06-08T18:02:25.539Z,11.97
2017-06-08T18:04:53.840Z,10.67
2017-06-08T18:07:22.235Z,10.57
2017-06-08T18:09:50.563Z,16.30
2017-06-08T18:12:18.947Z,13.53
2017-06-08T18:14:47.375Z,13.67
2017-06-08T18:17:15.690Z,14.10
2017-06-08T18:19:43.978Z,14.23
2017-06-08T18:22:13.173Z,12.93
2017-06-08T18:24:42.241Z,15.10
2017-06-08T18:27:10.649Z,13.70
2017-06-08T18:29:39.084Z,14.60
2017-06-08T18:32:07.558Z,15.57
2017-06-08T18:34:35.858Z,15.23
2017-06-08T18:37:04.155Z,14.47
2017-06-08T18:39:33.252Z,18.30
2017-06-08T18:42:01.554Z,15.13
2017-06-08T18:44:30.099Z,16.90
2017-06-08T18:46:58.487Z,19.70
2017-06-08T18:49:26.866Z,19.87
2017-06-08T18:51:55.240Z,25.07
2017-06-08T18:54:24.537Z,27.37
2017-06-08T18:56:52.925Z,25.00
2017-06-08T18:59:21.296Z,21.97
2017-06-08T19:01:50.493Z,19.67
2017-06-08T19:04:18.807Z,14.90
2017-06-08T19:06:47.462Z,20.73
2017-06-08T19:09:15.779Z,25.17
2017-06-08T19:11:44.082Z,18.17
2017-06-08T19:14:12.391Z,21.40
2017-06-08T19:16:40.692Z,22.97
2017-06-08T19:19:09.053Z,18.77
2017-06-08T19:21:38.103Z,23.33
2017-06-08T19:24:06.440Z,20.40
2017-06-08T19:26:34.813Z,22.87
2017-06-08T19:29:03.370Z,16.47
2017-06-08T19:31:31.754Z,23.30
2017-06-08T19:34:00.283Z,15.10
2017-06-08T19:36:28.603Z,18.10
2017-06-08T19:38:58.030Z,15.60
2017-06-08T19:41:26.390Z,18.70
2017-06-08T19:43:54.707Z,15.10
2017-06-08T19:46:23.040Z,17.30
2017-06-08T19:48:51.415Z,17.27
2017-06-08T19:51:19.877Z,17.70
2017-06-08T19:53:48.167Z,15.20
2017-06-08T19:56:16.863Z,15.93
2017-06-08T19:58:45.916Z,13.27
2017-06-08T20:01:14.218Z,17.07
2017-06-08T20:03:43.465Z,14.90
2017-06-08T20:06:11.835Z,19.70
2017-06-08T20:08:40.391Z,17.30
2017-06-08T20:11:08.759Z,20.43
2017-06-08T20:13:37.855Z,20.03
2017-06-08T20:16:06.182Z,20.80
2017-06-08T20:18:34.479Z,18.10
2017-06-08T20:21:02.795Z,20.70
2017-06-08T20:23:31.887Z,23.93
2017-06-08T20:26:00.367Z,19.13
2017-06-08T20:28:29.269Z,17.57
2017-06-08T20:30:57.599Z,19.80
2017-06-08T20:33:25.940Z,16.43
2017-06-08T20:35:54.271Z,14.93
2017-06-08T20:38:23.181Z,15.03
2017-06-08T20:40:51.509Z,17.33
2017-06-08T20:43:20.039Z,14.47
2017-06-08T20:45:48.375Z,15.17
2017-06-08T20:48:16.682Z,23.03
2017-06-08T20:50:46.025Z,15.03
2017-06-08T20:53:14.326Z,17.03
2017-06-08T20:55:42.649Z,17.87
2017-06-08T20:58:10.983Z,16.43
2017-06-08T21:00:39.333Z,16.57
2017-06-08T21:03:07.975Z,12.50
2017-06-08T21:05:37.075Z,16.77
2017-06-08T21:08:05.368Z,14.60
2017-06-08T21:10:33.696Z,14.27
2017-06-08T21:13:02.031Z,12.80
2017-06-08T21:15:30.480Z,12.27
2017-06-08T21:17:59.551Z,14.67
2017-06-08T21:20:28.648Z,14.10
2017-06-08T21:22:56.967Z,12.93
2017-06-08T21:25:25.337Z,14.07
2017-06-08T21:27:54.634Z,11.93
2017-06-08T21:30:22.956Z,12.53
2017-06-08T21:32:52.143Z,13.67
2017-06-08T21:35:20.479Z,14.90
2017-06-08T21:37:48.862Z,18.07
2017-06-08T21:40:17.539Z,14.90
2017-06-08T21:42:46.606Z,18.17
2017-06-08T21:45:15.284Z,15.37
2017-06-08T21:47:44.488Z,13.50
2017-06-08T21:50:12.902Z,12.87
2017-06-08T21:52:42.315Z,13.27
2017-06-08T21:55:10.664Z,16.17
2017-06-08T21:57:38.995Z,14.57
2017-06-08T22:00:07.437Z,14.37
2017-06-08T22:02:35.818Z,12.90
2017-06-08T22:05:04.177Z,12.30
2017-06-08T22:07:32.600Z,14.27
2017-06-08T22:10:01.245Z,13.30
2017-06-08T22:12:29.619Z,15.23
2017-06-08T22:14:57.994Z,15.10
2017-06-08T22:17:26.388Z,16.60
2017-06-08T22:19:54.763Z,14.47
2017-06-08T22:22:23.349Z,14.53
2017-06-08T22:24:52.492Z,16.10
2017-06-08T22:27:20.915Z,16.63
2017-06-08T22:29:49.273Z,14.83
2017-06-08T22:32:18.372Z,13.17
2017-06-08T22:34:48.079Z,16.73
2017-06-08T22:37:17.187Z,14.03
2017-06-08T22:39:45.527Z,17.30
2017-06-08T22:42:13.891Z,12.83
2017-06-08T22:44:42.339Z,13.40
2017-06-08T22:47:10.658Z,12.70
2017-06-08T22:49:39.198Z,15.63
2017-06-08T22:52:07.507Z,14.70
2017-06-08T22:54:36.054Z,14.90
2017-06-08T22:57:04.534Z,10.80
2017-06-08T22:59:33.759Z,11.17
2017-06-08T23:02:02.106Z,16.77
2017-06-08T23:04:30.460Z,11.80
2017-06-08T23:06:59.273Z,15.93
2017-06-08T23:09:27.960Z,17.57
2017-06-08T23:11:56.277Z,13.60
2017-06-08T23:14:24.598Z,14.43
2017-06-08T23:16:53.694Z,14.63
2017-06-08T23:19:22.188Z,14.17
2017-06-08T23:21:50.764Z,15.33
2017-06-08T23:24:19.086Z,12.00
2017-06-08T23:26:48.134Z,11.53
2017-06-08T23:29:16.513Z,11.93
2017-06-08T23:31:44.827Z,9.67
2017-06-08T23:34:13.172Z,9.10
2017-06-08T23:36:41.755Z,11.37
2017-06-08T23:39:10.944Z,10.60
2017-06-08T23:41:39.334Z,11.60
2017-06-08T23:44:07.700Z,12.53
2017-06-08T23:46:36.097Z,16.53
2017-06-08T23:49:05.385Z,11.90
2017-06-08T23:51:33.712Z,11.40
2017-06-08T23:54:02.114Z,12.40
2017-06-08T23:56:30.703Z,11.63
2017-06-08T23:58:58.999Z,9.73
